Terminal Aerodrome Forecast
Issued by NWS Greer, SC

Home | Current Version | Previous Version | Text Only | Print | Product List | Glossary On
Versions: 1 2 3 4 5 6 7 8 9 10 11 12 13 14 15 16 17 18
000
FTUS42 KGSP 252337
TAFGSP
TAF
KGSP 252337Z 2600/2624 14008KT P6SM BKN060 BKN250
     FM260800 16006KT 6SM BR BKN030
     FM260900 16006KT 5SM BR VCSH BKN025 PROB30 2609/2612 3SM -SHRA
      BR OVC007
     FM261200 15006KT 4SM -SHRA BR VCTS OVC008CB
     FM261800 17010G17KT 5SM -SHRA OVC015 PROB30 2618/2622 4SM TSRA
      OVC007CB
     FM262200 15007KT P6SM BKN035 PROB30 2623/2624 4SM -TSRA
      OVC012CB=

USA.gov is the U.S. government's official web portal to all federal, state and local government web resources and services.